createdAt,value
2022-11-29T00:06:40.582Z,99.90
2022-11-29T00:09:12.302Z,99.90
2022-11-29T00:11:58.635Z,99.90
2022-11-29T00:14:27.242Z,99.90
2022-11-29T00:16:57.427Z,99.90
2022-11-29T00:31:45.764Z,99.90
2022-11-29T00:39:13.357Z,99.90
2022-11-29T00:44:09.553Z,99.90
2022-11-29T00:46:37.843Z,99.90
2022-11-29T00:49:07.042Z,99.90
2022-11-29T00:58:59.860Z,99.90
2022-11-29T01:11:25.841Z,99.90
2022-11-29T01:14:04.761Z,99.90
2022-11-29T01:19:03.595Z,99.90
2022-11-29T01:24:00.460Z,99.90
2022-11-29T01:26:30.141Z,99.90
2022-11-29T01:29:01.053Z,99.90
2022-11-29T01:31:31.826Z,99.90
2022-11-29T01:34:02.765Z,99.90
2022-11-29T01:39:02.937Z,99.90
2022-11-29T01:41:33.536Z,99.90
2022-11-29T01:44:22.941Z,99.90
2022-11-29T01:49:27.739Z,99.90
2022-11-29T01:52:06.461Z,99.90
2022-11-29T01:54:41.419Z,99.90
2022-11-29T01:57:10.269Z,99.90
2022-11-29T01:59:44.907Z,99.90
2022-11-29T02:02:16.064Z,99.90
2022-11-29T02:04:46.220Z,99.90
2022-11-29T02:12:35.120Z,99.90
2022-11-29T02:15:27.514Z,99.90
2022-11-29T02:18:11.101Z,99.90
2022-11-29T02:21:09.048Z,99.90
2022-11-29T02:24:05.389Z,99.90
2022-11-29T02:27:00.099Z,99.90
2022-11-29T02:29:47.548Z,99.90
2022-11-29T02:32:45.619Z,99.90
2022-11-29T02:35:43.569Z,99.90
2022-11-29T02:40:56.989Z,99.90
2022-11-29T02:43:50.474Z,99.90
2022-11-29T02:46:43.126Z,99.90
2022-11-29T02:49:40.373Z,99.90
2022-11-29T02:52:19.619Z,99.90
2022-11-29T02:54:55.492Z,99.90
2022-11-29T02:57:38.618Z,99.90
2022-11-29T03:00:11.401Z,99.90
2022-11-29T03:03:01.664Z,99.90
2022-11-29T03:05:57.623Z,99.90
2022-11-29T03:08:41.150Z,99.90
2022-11-29T03:11:39.238Z,99.90
2022-11-29T03:14:22.891Z,99.90
2022-11-29T03:17:15.093Z,99.90
2022-11-29T03:20:02.381Z,99.90
2022-11-29T03:23:05.004Z,99.90
2022-11-29T03:25:41.009Z,99.90
2022-11-29T03:28:25.001Z,99.90
2022-11-29T03:31:20.030Z,99.90
2022-11-29T03:33:58.545Z,99.90
2022-11-29T03:36:42.749Z,99.90
2022-11-29T03:39:18.830Z,99.90
2022-11-29T03:41:55.772Z,99.90
2022-11-29T03:44:33.910Z,99.90
2022-11-29T03:47:20.006Z,99.90
2022-11-29T03:49:54.904Z,99.90
2022-11-29T03:52:29.492Z,99.90
2022-11-29T03:55:25.816Z,99.90
2022-11-29T03:58:16.764Z,99.90
2022-11-29T04:01:09.648Z,99.90
2022-11-29T04:03:52.291Z,99.90
2022-11-29T04:06:44.369Z,99.90
2022-11-29T04:09:39.774Z,99.90
2022-11-29T04:12:27.445Z,99.90
2022-11-29T04:15:25.853Z,99.90
2022-11-29T04:18:18.578Z,99.90
2022-11-29T04:21:01.903Z,99.90
2022-11-29T04:23:53.620Z,99.90
2022-11-29T04:26:47.183Z,99.90
2022-11-29T04:29:25.084Z,99.90
2022-11-29T04:32:20.983Z,99.90
2022-11-29T04:35:20.251Z,99.90
2022-11-29T04:38:22.893Z,99.90
2022-11-29T04:41:14.327Z,99.90
2022-11-29T04:44:04.817Z,99.90
2022-11-29T04:46:49.279Z,99.90
2022-11-29T04:49:47.375Z,99.90
2022-11-29T04:52:38.645Z,99.90
2022-11-29T04:55:31.142Z,99.90
2022-11-29T04:58:21.887Z,99.90
2022-11-29T05:01:12.628Z,99.90
2022-11-29T05:03:55.379Z,99.90
2022-11-29T05:06:45.857Z,99.90
2022-11-29T05:09:51.755Z,99.90
2022-11-29T05:12:38.944Z,99.90
2022-11-29T05:15:41.826Z,99.90
2022-11-29T05:18:32.831Z,99.90
2022-11-29T05:21:14.519Z,99.90
2022-11-29T05:24:12.120Z,99.90
2022-11-29T05:26:56.817Z,99.90
2022-11-29T05:29:44.551Z,99.90
2022-11-29T05:32:35.786Z,99.90
2022-11-29T05:35:26.777Z,99.90
2022-11-29T05:38:17.781Z,99.90
2022-11-29T05:41:09.531Z,99.90
2022-11-29T05:43:53.172Z,99.90
2022-11-29T05:46:46.515Z,99.90
2022-11-29T05:49:40.588Z,99.90
2022-11-29T05:52:35.839Z,99.90
2022-11-29T05:55:20.108Z,99.90
2022-11-29T05:58:09.293Z,99.90
2022-11-29T06:00:54.840Z,99.90
2022-11-29T06:03:44.285Z,99.90
2022-11-29T06:06:33.201Z,99.90
2022-11-29T06:09:11.383Z,99.90
2022-11-29T06:11:49.236Z,99.90
2022-11-29T06:14:45.196Z,99.90
2022-11-29T06:17:42.973Z,99.90
2022-11-29T06:20:33.842Z,99.90
2022-11-29T06:23:24.545Z,99.90
2022-11-29T06:26:07.576Z,99.90
2022-11-29T06:28:51.496Z,99.90
2022-11-29T06:31:32.899Z,99.90
2022-11-29T06:34:20.572Z,99.90
2022-11-29T06:36:53.824Z,99.90
2022-11-29T06:39:22.542Z,99.90
2022-11-29T06:41:53.102Z,99.90
2022-11-29T06:47:05.581Z,99.90
2022-11-29T06:49:43.248Z,99.90
2022-11-29T06:52:23.014Z,99.90
2022-11-29T06:55:22.603Z,99.90
2022-11-29T06:58:14.158Z,99.90
2022-11-29T07:00:55.675Z,99.90
2022-11-29T07:03:54.073Z,99.90
2022-11-29T07:06:26.358Z,99.90
2022-11-29T07:09:00.803Z,99.90
2022-11-29T07:13:58.912Z,99.90
2022-11-29T07:16:37.445Z,99.90
2022-11-29T07:19:35.348Z,99.90
2022-11-29T07:22:33.781Z,99.90
2022-11-29T07:25:24.677Z,99.90
2022-11-29T07:28:17.204Z,99.90
2022-11-29T07:31:12.654Z,99.90
2022-11-29T07:33:55.747Z,99.90
2022-11-29T07:36:44.281Z,99.90
2022-11-29T07:39:23.451Z,99.90
2022-11-29T07:42:10.601Z,99.90
2022-11-29T07:45:02.467Z,99.90
2022-11-29T07:47:35.786Z,99.90
2022-11-29T08:02:32.770Z,99.90
2022-11-29T08:07:31.702Z,99.90
2022-11-29T08:10:00.768Z,99.90
2022-11-29T08:19:53.412Z,99.90
2022-11-29T08:24:51.744Z,99.90
2022-11-29T08:44:39.273Z,99.90
2022-11-29T08:47:22.061Z,99.90
2022-11-29T08:50:04.856Z,99.90
2022-11-29T08:52:51.555Z,99.90
2022-11-29T08:55:21.558Z,99.90
2022-11-29T08:57:50.480Z,99.90
2022-11-29T09:00:19.263Z,99.90
2022-11-29T09:02:49.796Z,99.90
2022-11-29T09:05:17.261Z,99.90
2022-11-29T09:08:00.027Z,99.90
2022-11-29T09:10:27.520Z,99.90
2022-11-29T09:12:58.127Z,99.90
2022-11-29T09:15:25.552Z,99.90
2022-11-29T09:17:52.995Z,99.90
2022-11-29T09:20:20.574Z,99.90
2022-11-29T09:22:50.577Z,99.90
2022-11-29T09:25:20.304Z,99.90
2022-11-29T09:27:47.852Z,99.90
2022-11-29T09:30:23.448Z,99.90
2022-11-29T09:32:54.206Z,99.90
2022-11-29T09:35:26.284Z,99.90
2022-11-29T09:37:53.723Z,99.90
2022-11-29T09:40:30.157Z,99.90
2022-11-29T09:43:11.876Z,99.90
2022-11-29T09:45:43.877Z,99.90
2022-11-29T09:48:42.957Z,99.90
2022-11-29T09:51:42.672Z,99.90
2022-11-29T09:54:42.155Z,99.90
2022-11-29T09:57:11.359Z,97.10
2022-11-29T09:59:43.567Z,99.90
2022-11-29T10:02:38.397Z,93.10
2022-11-29T10:05:21.811Z,92.70
2022-11-29T10:08:09.512Z,94.10
2022-11-29T10:10:45.013Z,96.80
2022-11-29T10:13:24.833Z,95.60
2022-11-29T10:15:55.544Z,92.00
2022-11-29T10:18:38.410Z,93.20
2022-11-29T10:21:17.779Z,94.10
2022-11-29T10:23:54.946Z,85.00
2022-11-29T10:31:36.236Z,91.90
2022-11-29T10:34:19.342Z,99.50
2022-11-29T10:36:51.358Z,96.20
2022-11-29T10:39:39.897Z,98.50
2022-11-29T10:42:36.251Z,94.60
2022-11-29T10:45:08.391Z,98.60
2022-11-29T10:52:39.932Z,94.60
2022-11-29T10:55:14.897Z,93.90
2022-11-29T10:58:13.492Z,95.70
2022-11-29T11:00:53.289Z,91.90
2022-11-29T11:03:40.917Z,95.60
2022-11-29T11:06:25.301Z,89.50
2022-11-29T11:09:11.700Z,90.20
2022-11-29T11:11:40.143Z,95.90
2022-11-29T11:14:31.614Z,81.30
2022-11-29T11:17:33.037Z,84.50
2022-11-29T11:20:11.138Z,83.90
2022-11-29T11:25:29.612Z,89.40
2022-11-29T11:28:10.917Z,90.70
2022-11-29T11:33:20.300Z,91.70
2022-11-29T11:36:10.392Z,95.50
2022-11-29T11:38:50.717Z,94.40
2022-11-29T11:41:43.087Z,99.90
2022-11-29T11:44:46.876Z,99.50
2022-11-29T11:47:29.331Z,96.80
2022-11-29T11:50:11.732Z,99.90
2022-11-29T11:53:02.503Z,99.90
2022-11-29T11:55:35.031Z,99.90
2022-11-29T11:58:10.714Z,99.90
2022-11-29T12:01:03.558Z,99.90
2022-11-29T12:03:39.917Z,99.90
2022-11-29T12:06:25.946Z,99.90
2022-11-29T12:09:02.690Z,99.90
2022-11-29T12:11:41.605Z,99.90
2022-11-29T12:14:18.691Z,99.90
2022-11-29T12:19:20.908Z,99.90
2022-11-29T12:21:53.078Z,99.90
2022-11-29T12:36:47.716Z,99.90
2022-11-29T12:39:36.036Z,99.90
2022-11-29T12:42:36.488Z,99.90
2022-11-29T12:45:34.935Z,99.90
2022-11-29T12:48:14.854Z,99.90
2022-11-29T12:51:07.880Z,99.90
2022-11-29T12:53:50.430Z,99.90
2022-11-29T12:56:27.989Z,99.90
2022-11-29T12:59:26.303Z,99.90
2022-11-29T13:02:24.398Z,99.90
2022-11-29T13:05:01.211Z,99.90
2022-11-29T13:08:02.417Z,99.90
2022-11-29T13:11:01.650Z,99.90
2022-11-29T13:13:39.395Z,99.90
2022-11-29T13:16:30.851Z,99.90
2022-11-29T13:19:18.957Z,99.90
2022-11-29T13:22:09.293Z,99.90
2022-11-29T13:24:43.384Z,99.90
2022-11-29T13:27:19.832Z,99.90
2022-11-29T13:32:34.469Z,99.90
2022-11-29T13:35:24.610Z,99.90
2022-11-29T13:37:59.853Z,99.90
2022-11-29T13:41:03.442Z,99.90
2022-11-29T13:43:51.848Z,99.90
2022-11-29T13:46:42.543Z,99.90
2022-11-29T13:49:41.127Z,99.90
2022-11-29T13:52:37.025Z,99.90
2022-11-29T13:55:23.101Z,99.90
2022-11-29T13:58:31.711Z,99.90
2022-11-29T14:01:09.107Z,99.90
2022-11-29T14:03:43.887Z,99.90
2022-11-29T14:06:22.151Z,99.90
2022-11-29T14:09:17.963Z,99.90
2022-11-29T14:14:16.379Z,99.90
2022-11-29T14:16:43.722Z,99.90
2022-11-29T14:21:56.929Z,99.90
2022-11-29T14:24:35.948Z,99.90
2022-11-29T14:27:10.137Z,99.90
2022-11-29T14:29:49.552Z,99.90
2022-11-29T14:32:58.306Z,99.90
2022-11-29T14:35:40.185Z,99.90
2022-11-29T14:38:34.807Z,99.90
2022-11-29T14:41:21.324Z,99.90
2022-11-29T14:46:16.945Z,99.90
2022-11-29T14:48:55.975Z,99.90
2022-11-29T14:51:25.662Z,99.90
2022-11-29T14:54:03.834Z,99.90
2022-11-29T14:59:46.234Z,99.90
2022-11-29T15:02:41.395Z,99.90
2022-11-29T15:05:28.954Z,99.90
2022-11-29T15:08:19.360Z,99.90
2022-11-29T15:10:57.861Z,99.90
2022-11-29T15:13:34.276Z,99.90
2022-11-29T15:16:40.837Z,99.90
2022-11-29T15:19:49.010Z,99.90
2022-11-29T15:24:51.941Z,99.90
2022-11-29T15:32:31.173Z,99.90
2022-11-29T15:34:59.075Z,99.90
2022-11-29T15:40:19.578Z,99.90
2022-11-29T15:42:51.481Z,99.90
2022-11-29T15:45:27.596Z,99.90
2022-11-29T15:47:55.422Z,99.90
2022-11-29T15:50:34.103Z,99.90
2022-11-29T15:53:05.816Z,99.90
2022-11-29T15:55:33.662Z,99.90
2022-11-29T15:58:08.478Z,99.90
2022-11-29T16:00:36.835Z,99.90
2022-11-29T16:03:06.317Z,99.90
2022-11-29T16:05:38.699Z,99.90
2022-11-29T16:08:16.752Z,99.90
2022-11-29T16:10:52.969Z,99.90
2022-11-29T16:13:31.280Z,99.90
2022-11-29T16:16:15.624Z,99.90
2022-11-29T16:18:45.481Z,99.90
2022-11-29T16:21:33.013Z,99.90
2022-11-29T16:24:19.462Z,99.90
2022-11-29T16:26:49.830Z,99.90
2022-11-29T16:29:38.469Z,99.90
2022-11-29T16:32:31.693Z,99.90
2022-11-29T16:35:24.579Z,99.90
2022-11-29T16:37:51.653Z,99.90
2022-11-29T16:40:25.953Z,99.90
2022-11-29T16:43:05.310Z,99.90
2022-11-29T16:45:37.027Z,99.90
2022-11-29T16:48:26.792Z,99.90
2022-11-29T16:51:14.715Z,99.90
2022-11-29T16:53:50.456Z,99.90
2022-11-29T16:56:21.164Z,99.90
2022-11-29T16:59:20.879Z,99.90
2022-11-29T17:01:42.238Z,99.90
2022-11-29T17:06:37.924Z,99.90
2022-11-29T17:09:05.869Z,99.90
2022-11-29T17:11:33.093Z,99.90
2022-11-29T17:18:56.158Z,99.90
2022-11-29T17:21:26.401Z,99.90
2022-11-29T17:23:54.772Z,99.90
2022-11-29T17:28:51.761Z,99.90
2022-11-29T17:31:24.280Z,99.90
2022-11-29T17:33:51.723Z,99.90
2022-11-29T17:36:20.831Z,99.90
2022-11-29T17:38:48.774Z,99.90
2022-11-29T17:41:18.826Z,99.90
2022-11-29T17:46:19.247Z,99.90
2022-11-29T17:51:50.476Z,99.90
2022-11-29T17:54:11.662Z,99.90
2022-11-29T17:56:42.170Z,99.90
2022-11-29T18:06:43.724Z,99.90
2022-11-29T18:09:13.163Z,99.90
2022-11-29T18:11:48.570Z,99.90
2022-11-29T18:14:20.886Z,99.90
2022-11-29T18:19:22.035Z,99.90
2022-11-29T18:21:52.526Z,99.90
2022-11-29T18:29:17.457Z,99.90
2022-11-29T18:31:50.275Z,99.90
2022-11-29T18:34:18.072Z,99.90
2022-11-29T18:36:48.268Z,99.90
2022-11-29T18:39:20.762Z,99.90
2022-11-29T18:41:53.227Z,99.90
2022-11-29T18:44:21.973Z,99.90
2022-11-29T18:49:23.100Z,99.90
2022-11-29T18:51:53.650Z,99.90
2022-11-29T18:56:52.400Z,99.90
2022-11-29T19:09:30.593Z,99.90
2022-11-29T19:14:27.840Z,99.90
2022-11-29T19:19:29.561Z,99.90
2022-11-29T19:22:00.263Z,99.90
2022-11-29T19:29:39.395Z,99.90
2022-11-29T19:34:42.154Z,99.90
2022-11-29T19:45:15.459Z,99.90
2022-11-29T19:50:10.531Z,99.90
2022-11-29T19:52:40.863Z,99.90
2022-11-29T19:55:17.540Z,99.90
2022-11-29T20:00:14.323Z,99.90
2022-11-29T20:05:10.984Z,99.90
2022-11-29T20:17:50.941Z,99.90
2022-11-29T20:22:58.215Z,99.90
2022-11-29T20:27:57.480Z,99.90
2022-11-29T20:33:00.425Z,99.90
2022-11-29T20:35:32.520Z,99.90
2022-11-29T20:38:11.392Z,99.90
2022-11-29T20:41:03.172Z,99.90
2022-11-29T20:43:44.654Z,99.90
2022-11-29T20:46:20.690Z,99.90
2022-11-29T20:51:40.811Z,99.90
2022-11-29T20:54:11.484Z,99.90
2022-11-29T21:06:38.780Z,99.90
2022-11-29T21:09:07.033Z,99.90
2022-11-29T21:11:35.014Z,99.90
2022-11-29T21:16:32.772Z,99.90
2022-11-29T21:19:02.963Z,99.90
2022-11-29T21:21:54.319Z,99.90
2022-11-29T21:24:39.803Z,99.90
2022-11-29T21:27:13.042Z,99.90
2022-11-29T21:32:19.717Z,99.90
2022-11-29T21:37:18.799Z,99.90
2022-11-29T21:39:47.525Z,99.90
2022-11-29T21:44:43.233Z,99.90
2022-11-29T21:59:31.274Z,99.90
2022-11-29T22:11:50.385Z,99.90
2022-11-29T22:17:00.021Z,99.90
2022-11-29T22:19:33.163Z,99.90
2022-11-29T22:22:04.849Z,99.90
2022-11-29T22:24:34.773Z,99.90
2022-11-29T22:44:24.261Z,99.90
2022-11-29T22:46:52.073Z,99.90
2022-11-29T22:51:48.472Z,99.90
2022-11-29T22:56:45.374Z,99.90
2022-11-29T22:59:13.839Z,99.90
2022-11-29T23:01:42.186Z,99.90
2022-11-29T23:04:11.683Z,99.90
2022-11-29T23:06:44.080Z,99.90
2022-11-29T23:09:16.887Z,99.90
2022-11-29T23:11:47.210Z,99.90
2022-11-29T23:19:13.404Z,99.90
2022-11-29T23:21:41.844Z,99.90
2022-11-29T23:26:40.408Z,99.90
2022-11-29T23:29:11.611Z,99.90
2022-11-29T23:31:39.843Z,99.90
2022-11-29T23:39:04.238Z,99.90
2022-11-29T23:53:53.409Z,99.90
2022-11-29T23:56:22.008Z,99.90
2022-11-29T23:58:49.665Z,99.90
